Time;durP1;ratioP1;P1;durP2;ratioP2;P2;SDS_P1;SDS_P2;PMS_P1;PMS_P2;Temp;Humidity;BMP_temperature;BMP_pressure;BME280_temperature;BME280_humidity;BME280_pressure;Samples;Min_cycle;Max_cycle;Signal;HPM_P1;HPM_P2
2024/01/06 00:01:15;;;;;;;3.40;2.30;;;;;;;12.11;52.31;101792.68;107115;1266;25319;-51
2024/01/06 00:03:42;;;;;;;2.90;2.30;;;;;;;12.13;52.41;101786.92;106354;1261;1002954;-51
2024/01/06 00:06:13;;;;;;;3.70;2.30;;;;;;;12.13;52.37;101782.23;106928;1256;22534;-51
2024/01/06 00:08:41;;;;;;;3.50;2.10;;;;;;;12.14;52.40;101781.34;107122;1256;25352;-51
2024/01/06 00:11:07;;;;;;;2.80;2.20;;;;;;;12.16;52.45;101786.02;107081;1256;24054;-51
2024/01/06 00:13:34;;;;;;;3.70;2.10;;;;;;;12.17;52.45;101793.65;106994;1266;25350;-51
2024/01/06 00:16:01;;;;;;;7.50;2.90;;;;;;;12.19;52.58;101794.67;106881;1264;25398;-51
2024/01/06 00:18:28;;;;;;;3.90;2.20;;;;;;;12.21;52.63;101800.39;106742;1267;25517;-51
2024/01/06 00:20:56;;;;;;;2.50;1.90;;;;;;;12.22;52.78;101806.99;106460;1257;1002849;-51
2024/01/06 00:23:23;;;;;;;3.50;2.40;;;;;;;12.23;52.59;101803.85;107047;1264;25385;-51
2024/01/06 00:25:50;;;;;;;3.10;2.20;;;;;;;12.24;52.57;101803.50;107112;1257;25325;-51
2024/01/06 00:28:17;;;;;;;3.90;1.70;;;;;;;12.25;52.29;101806.44;107028;1253;25407;-51
2024/01/06 00:30:45;;;;;;;4.10;1.90;;;;;;;12.26;52.09;101803.48;107174;1257;25336;-51
2024/01/06 00:33:12;;;;;;;2.40;1.90;;;;;;;12.27;52.01;101796.32;107107;1263;25350;-52
2024/01/06 00:35:39;;;;;;;6.40;2.10;;;;;;;12.29;52.06;101796.30;107123;1263;24243;-52
2024/01/06 00:38:06;;;;;;;6.60;2.10;;;;;;;12.31;52.24;101792.80;107242;1253;25353;-51
2024/01/06 00:40:33;;;;;;;4.10;2.10;;;;;;;12.32;52.25;101791.05;107128;1257;25522;-51
2024/01/06 00:43:00;;;;;;;3.90;1.90;;;;;;;12.33;52.04;101793.64;107150;1257;25356;-51
2024/01/06 00:45:28;;;;;;;4.60;1.70;;;;;;;12.33;52.17;101788.41;106820;1260;25343;-51
2024/01/06 00:47:55;;;;;;;3.60;2.10;;;;;;;12.35;52.29;101788.74;106842;1275;25474;-51
2024/01/06 00:50:22;;;;;;;4.00;2.40;;;;;;;12.37;52.55;101786.98;107061;1263;25325;-51
2024/01/06 00:52:52;;;;;;;3.00;1.90;;;;;;;12.39;52.65;101789.91;106326;1257;1003533;-51
2024/01/06 00:55:20;;;;;;;4.40;2.00;;;;;;;12.41;52.95;101787.09;106778;1270;25312;-51
2024/01/06 00:57:47;;;;;;;4.70;1.70;;;;;;;12.43;53.13;101784.98;107109;1267;25353;-51
2024/01/06 01:00:14;;;;;;;2.90;2.00;;;;;;;12.46;53.41;101785.82;106790;1256;24202;-51
2024/01/06 01:02:41;;;;;;;5.00;2.30;;;;;;;12.47;53.39;101779.88;106888;1255;25352;-51
2024/01/06 01:05:09;;;;;;;4.20;2.10;;;;;;;12.49;53.69;101782.98;106784;1260;25340;-51
2024/01/06 01:07:36;;;;;;;3.80;2.10;;;;;;;12.52;53.80;101783.13;107202;1264;25328;-51
2024/01/06 01:10:04;;;;;;;5.20;2.10;;;;;;;12.54;53.94;101776.65;107150;1266;25439;-51
2024/01/06 01:12:31;;;;;;;3.80;1.80;;;;;;;12.56;53.93;101779.77;107167;1257;24217;-51
2024/01/06 01:14:58;;;;;;;3.20;1.70;;;;;;;12.56;53.84;101775.58;107222;1257;25484;-51
2024/01/06 01:17:25;;;;;;;5.30;2.20;;;;;;;12.58;53.88;101769.81;107133;1273;25420;-51
2024/01/06 01:19:52;;;;;;;4.20;2.80;;;;;;;12.59;54.01;101773.45;107154;1262;25366;-51
2024/01/06 01:22:19;;;;;;;4.10;1.80;;;;;;;12.60;53.90;101773.45;107043;1264;25385;-51
2024/01/06 01:24:46;;;;;;;2.90;1.60;;;;;;;12.60;53.75;101770.13;106825;1268;25353;-51
2024/01/06 01:27:14;;;;;;;3.70;1.70;;;;;;;12.61;53.71;101766.61;107076;1266;25513;-51
2024/01/06 01:29:41;;;;;;;3.10;2.10;;;;;;;12.62;53.76;101765.23;106850;1267;25337;-52
2024/01/06 01:32:08;;;;;;;3.00;2.00;;;;;;;12.64;53.85;101768.16;106460;1256;1002908;-51
2024/01/06 01:34:36;;;;;;;4.30;2.20;;;;;;;12.64;54.02;101760.33;106860;1259;25325;-51
2024/01/06 01:37:03;;;;;;;3.40;1.90;;;;;;;12.66;54.15;101760.30;107120;1259;25362;-51
2024/01/06 01:39:30;;;;;;;4.40;2.20;;;;;;;12.68;54.18;101760.27;106426;1266;1003528;-52
2024/01/06 01:41:57;;;;;;;6.10;2.20;;;;;;;12.69;54.27;101756.08;107059;1257;24227;-51
2024/01/06 01:44:24;;;;;;;7.40;2.10;;;;;;;12.70;54.27;101752.23;107117;1257;22530;-51
2024/01/06 01:46:51;;;;;;;2.40;1.90;;;;;;;12.72;54.19;101749.42;107164;1267;25328;-51
2024/01/06 01:49:18;;;;;;;6.70;2.20;;;;;;;12.73;54.23;101753.92;106300;1257;1002864;-51
2024/01/06 01:51:45;;;;;;;4.60;2.10;;;;;;;12.74;54.16;101755.30;107118;1256;25488;-51
2024/01/06 01:54:12;;;;;;;3.40;2.20;;;;;;;12.74;54.10;101754.96;106723;1262;25356;-51
2024/01/06 01:56:39;;;;;;;3.70;1.90;;;;;;;12.76;54.15;101758.23;107088;1264;25353;-51
2024/01/06 01:59:11;;;;;;;3.40;2.10;;;;;;;12.79;54.30;101762.20;106920;1260;25341;-51
2024/01/06 02:01:39;;;;;;;4.50;1.90;;;;;;;12.82;54.46;101756.75;106825;1260;25334;-51
2024/01/06 02:04:06;;;;;;;5.90;2.00;;;;;;;12.86;54.48;101750.08;106891;1269;25360;-51
2024/01/06 02:06:34;;;;;;;4.40;2.80;;;;;;;12.89;54.45;101744.63;107053;1266;25329;-51
2024/01/06 02:09:01;;;;;;;4.20;2.00;;;;;;;12.92;54.52;101739.35;106900;1267;25331;-51
2024/01/06 02:11:28;;;;;;;6.50;2.00;;;;;;;12.96;54.62;101733.73;107074;1256;22620;-53
2024/01/06 02:13:55;;;;;;;7.30;2.40;;;;;;;13.00;54.69;101731.73;107049;1259;25478;-51
2024/01/06 02:16:22;;;;;;;4.70;2.40;;;;;;;13.03;54.76;101729.77;107119;1266;25362;-51
2024/01/06 02:18:49;;;;;;;3.70;2.00;;;;;;;13.06;54.82;101720.85;107171;1266;25363;-51
2024/01/06 02:21:16;;;;;;;5.20;1.90;;;;;;;13.10;54.75;101710.71;107122;1256;25800;-51
2024/01/06 02:23:43;;;;;;;4.50;2.20;;;;;;;13.12;54.87;101707.36;107048;1266;25328;-51
2024/01/06 02:26:10;;;;;;;4.40;2.20;;;;;;;13.15;54.91;101710.98;107113;1264;22523;-51
2024/01/06 02:28:37;;;;;;;4.30;2.00;;;;;;;13.18;54.98;101701.70;107075;1257;25353;-51
2024/01/06 02:31:04;;;;;;;4.90;2.50;;;;;;;13.21;55.09;101701.80;106430;1262;1003261;-51
2024/01/06 02:33:31;;;;;;;5.20;2.10;;;;;;;13.24;55.12;101702.09;107078;1267;25325;-51
2024/01/06 02:35:58;;;;;;;4.90;2.40;;;;;;;13.26;55.35;101693.17;106871;1267;25344;-51
2024/01/06 02:38:25;;;;;;;8.00;2.70;;;;;;;13.27;55.50;101689.34;107173;1261;25415;-51
2024/01/06 02:40:52;;;;;;;4.30;2.20;;;;;;;13.28;55.67;101690.35;106358;1266;1002838;-51
2024/01/06 02:43:19;;;;;;;5.80;2.60;;;;;;;13.30;55.99;101688.23;107113;1267;23920;-51
2024/01/06 02:45:46;;;;;;;7.60;2.00;;;;;;;13.33;56.09;101685.20;106574;1262;447507;-51
2024/01/06 02:48:13;;;;;;;7.10;2.60;;;;;;;13.35;56.28;101683.08;107054;1266;24333;-51
2024/01/06 02:50:40;;;;;;;6.80;2.40;;;;;;;13.38;56.50;101681.96;106937;1267;25577;-51
2024/01/06 02:53:09;;;;;;;4.70;2.20;;;;;;;13.42;56.66;101678.94;107095;1264;25334;-51
2024/01/06 02:55:36;;;;;;;5.20;2.60;;;;;;;13.45;56.79;101674.87;107118;1265;22531;-51
2024/01/06 02:58:03;;;;;;;4.50;1.90;;;;;;;13.48;56.89;101672.38;107039;1266;25318;-51
2024/01/06 03:00:30;;;;;;;6.40;2.50;;;;;;;13.49;57.05;101666.07;107011;1267;25539;-52
2024/01/06 03:02:57;;;;;;;7.70;2.30;;;;;;;13.50;57.23;101661.35;107003;1267;24577;-51
2024/01/06 03:05:24;;;;;;;7.90;2.50;;;;;;;13.52;57.40;101660.61;106801;1268;25488;-51
2024/01/06 03:07:51;;;;;;;6.10;2.60;;;;;;;13.52;57.56;101660.42;107098;1263;25411;-52
2024/01/06 03:10:18;;;;;;;7.50;2.60;;;;;;;13.53;57.78;101663.73;106832;1272;25346;-51
2024/01/06 03:12:45;;;;;;;6.90;2.30;;;;;;;13.53;58.07;101663.21;106827;1267;25488;-51
2024/01/06 03:15:13;;;;;;;8.10;3.20;;;;;;;13.55;58.31;101660.55;107186;1263;25380;-51
2024/01/06 03:17:40;;;;;;;5.90;2.80;;;;;;;13.55;58.43;101648.02;107154;1261;25487;-51
2024/01/06 03:20:08;;;;;;;5.50;2.40;;;;;;;13.56;58.63;101645.35;106976;1265;22529;-52
2024/01/06 03:22:36;;;;;;;8.40;2.80;;;;;;;13.58;58.77;101641.67;106823;1261;22527;-51
2024/01/06 03:25:04;;;;;;;7.40;2.80;;;;;;;13.60;58.84;101640.08;106333;1267;1003805;-51
2024/01/06 03:27:31;;;;;;;12.90;3.50;;;;;;;13.61;59.00;101637.23;106892;1266;23867;-51
2024/01/06 03:29:58;;;;;;;9.60;3.20;;;;;;;13.62;59.05;101633.02;107140;1270;25507;-51
2024/01/06 03:32:25;;;;;;;10.80;3.00;;;;;;;13.63;59.19;101626.56;106734;1258;25433;-51
2024/01/06 03:34:52;;;;;;;6.70;2.60;;;;;;;13.65;59.33;101629.30;107130;1265;25347;-51
2024/01/06 03:37:19;;;;;;;11.50;4.10;;;;;;;13.67;59.30;101627.88;107211;1257;25334;-51
2024/01/06 03:39:46;;;;;;;8.90;3.00;;;;;;;13.68;59.45;101625.23;107064;1257;25443;-51
2024/01/06 03:42:14;;;;;;;6.40;2.60;;;;;;;13.70;59.47;101624.52;107120;1266;23874;-51
2024/01/06 03:44:41;;;;;;;6.80;2.70;;;;;;;13.70;59.62;101620.31;107113;1256;25455;-52
2024/01/06 03:47:08;;;;;;;7.70;2.80;;;;;;;13.70;59.72;101613.34;107116;1263;25369;-51
2024/01/06 03:49:35;;;;;;;6.90;2.30;;;;;;;13.72;59.74;101614.53;107177;1262;22647;-51
2024/01/06 03:52:02;;;;;;;9.70;3.40;;;;;;;13.73;59.82;101613.11;107063;1260;25430;-51
2024/01/06 03:54:30;;;;;;;9.90;3.20;;;;;;;13.73;59.89;101613.64;107140;1256;25268;-51
2024/01/06 03:56:57;;;;;;;7.50;3.10;;;;;;;13.73;60.02;101614.67;106119;1270;1002633;-52
2024/01/06 03:59:24;;;;;;;10.10;3.60;;;;;;;13.74;60.03;101614.66;107090;1261;25343;-51
2024/01/06 04:01:51;;;;;;;9.60;3.20;;;;;;;13.72;60.06;101614.86;107164;1257;25359;-51
2024/01/06 04:04:17;;;;;;;6.90;2.80;;;;;;;13.73;60.11;101611.71;107085;1257;23896;-51
2024/01/06 04:06:44;;;;;;;9.10;3.10;;;;;;;13.73;60.17;101607.54;107042;1266;25369;-51
2024/01/06 04:09:11;;;;;;;9.30;2.90;;;;;;;13.73;60.29;101608.05;106892;1261;25478;-51
2024/01/06 04:11:40;;;;;;;7.80;2.90;;;;;;;13.74;60.44;101607.87;107153;1254;22518;-52
2024/01/06 04:14:07;;;;;;;9.10;3.90;;;;;;;13.74;60.49;101602.98;107253;1258;25487;-51
2024/01/06 04:16:34;;;;;;;8.60;3.00;;;;;;;13.75;60.46;101603.98;107130;1256;22523;-51
2024/01/06 04:19:01;;;;;;;10.50;3.00;;;;;;;13.76;60.55;101601.73;107082;1263;25405;-51
2024/01/06 04:21:28;;;;;;;6.50;2.60;;;;;;;13.76;60.54;101599.80;107199;1264;24231;-51
2024/01/06 04:23:55;;;;;;;9.50;3.20;;;;;;;13.76;60.55;101604.34;107100;1257;25490;-51
2024/01/06 04:26:22;;;;;;;11.40;3.40;;;;;;;13.76;60.61;101603.46;107150;1251;25353;-51
2024/01/06 04:28:49;;;;;;;15.00;3.50;;;;;;;13.77;60.72;101600.98;106829;1261;22531;-51
2024/01/06 04:31:16;;;;;;;10.40;3.00;;;;;;;13.79;60.79;101596.39;106828;1260;25353;-51
2024/01/06 04:33:43;;;;;;;10.60;3.20;;;;;;;13.82;60.78;101599.31;107082;1267;25334;-51
2024/01/06 04:36:10;;;;;;;8.60;3.30;;;;;;;13.83;60.85;101596.48;106991;1260;25487;-51
2024/01/06 04:38:37;;;;;;;10.50;3.20;;;;;;;13.85;60.93;101594.89;106892;1266;25344;-51
2024/01/06 04:41:04;;;;;;;8.50;3.40;;;;;;;13.86;60.95;101594.86;107053;1263;25386;-51
2024/01/06 04:43:31;;;;;;;9.80;3.90;;;;;;;13.87;60.99;101593.79;106896;1267;25340;-51
2024/01/06 04:45:58;;;;;;;13.00;4.80;;;;;;;13.88;61.10;101595.35;106920;1260;25347;-51
2024/01/06 04:48:26;;;;;;;10.50;3.50;;;;;;;13.88;61.05;101591.67;106808;1272;25449;-51
2024/01/06 04:50:53;;;;;;;9.50;3.40;;;;;;;13.88;61.11;101583.83;107080;1264;23071;-51
2024/01/06 04:53:20;;;;;;;12.80;4.10;;;;;;;13.89;61.27;101585.55;107073;1268;25484;-51
2024/01/06 04:55:47;;;;;;;10.10;3.30;;;;;;;13.90;61.29;101581.17;106908;1267;25341;-51
2024/01/06 04:58:13;;;;;;;11.60;4.60;;;;;;;13.90;61.24;101579.06;106857;1267;24199;-51
2024/01/06 05:00:40;;;;;;;9.90;4.00;;;;;;;13.91;61.35;101581.16;106863;1257;25347;-51
2024/01/06 05:03:08;;;;;;;11.80;3.80;;;;;;;13.90;61.41;101580.98;106337;1256;1003559;-51
2024/01/06 05:05:35;;;;;;;8.70;3.60;;;;;;;13.89;61.44;101578.39;106849;1261;22532;-51
2024/01/06 05:08:03;;;;;;;10.70;4.10;;;;;;;13.91;61.48;101576.25;107261;1257;25328;-51
2024/01/06 05:10:29;;;;;;;11.80;4.80;;;;;;;13.90;61.44;101571.05;106880;1260;22533;-52
2024/01/06 05:12:56;;;;;;;12.50;3.30;;;;;;;13.90;61.49;101575.42;107017;1266;25328;-51
2024/01/06 05:15:24;;;;;;;15.30;4.30;;;;;;;13.89;61.48;101573.16;106797;1257;25334;-51
2024/01/06 05:17:51;;;;;;;11.90;4.20;;;;;;;13.90;61.57;101572.78;107204;1258;25414;-51
2024/01/06 05:20:18;;;;;;;14.00;4.20;;;;;;;13.91;61.65;101567.90;107164;1266;25443;-51
2024/01/06 05:22:45;;;;;;;11.30;4.10;;;;;;;13.91;61.58;101566.66;107081;1257;25366;-51
2024/01/06 05:25:12;;;;;;;12.20;4.30;;;;;;;13.91;61.60;101563.71;107137;1256;25347;-51
2024/01/06 05:27:39;;;;;;;14.40;4.70;;;;;;;13.89;61.63;101565.13;107094;1254;25522;-51
2024/01/06 05:30:08;;;;;;;11.30;4.10;;;;;;;13.89;61.67;101564.08;107055;1257;25438;-51
2024/01/06 05:32:36;;;;;;;11.30;4.80;;;;;;;13.89;61.70;101563.23;107153;1260;25562;-51
2024/01/06 05:35:04;;;;;;;13.60;4.50;;;;;;;13.89;61.74;101560.61;106730;1258;25324;-51
2024/01/06 05:37:32;;;;;;;13.30;4.20;;;;;;;13.88;61.84;101563.59;106860;1257;25277;-51
2024/01/06 05:40:01;;;;;;;11.70;4.20;;;;;;;13.89;61.89;101561.48;107097;1251;24378;-51
2024/01/06 05:42:28;;;;;;;9.10;3.70;;;;;;;13.88;61.90;101558.02;107062;1257;25328;-51
2024/01/06 05:44:56;;;;;;;13.50;4.70;;;;;;;13.87;61.90;101561.34;107164;1257;25325;-51
2024/01/06 05:47:22;;;;;;;10.20;3.90;;;;;;;13.87;61.93;101558.73;107136;1257;25344;-51
2024/01/06 05:49:49;;;;;;;10.50;3.90;;;;;;;13.87;61.92;101558.02;106890;1260;25402;-51
2024/01/06 05:52:16;;;;;;;11.20;3.70;;;;;;;13.88;62.04;101551.58;107116;1257;25318;-51
2024/01/06 05:54:43;;;;;;;12.70;4.00;;;;;;;13.89;62.03;101551.71;106494;1264;25325;-51
2024/01/06 05:57:11;;;;;;;9.20;3.60;;;;;;;13.90;62.10;101551.35;106973;1254;25488;-51
2024/01/06 05:59:39;;;;;;;11.10;4.00;;;;;;;13.91;62.05;101552.70;107060;1258;25338;-51
2024/01/06 06:02:06;;;;;;;15.80;4.00;;;;;;;13.93;62.12;101555.81;106842;1271;25474;-51
2024/01/06 06:04:33;;;;;;;11.80;4.20;;;;;;;13.95;62.12;101554.02;107120;1263;25356;-51
2024/01/06 06:07:00;;;;;;;11.90;3.70;;;;;;;13.98;62.05;101558.52;106816;1260;25347;-51
2024/01/06 06:09:29;;;;;;;9.80;3.90;;;;;;;14.00;61.96;101559.15;107035;1254;22608;-51
2024/01/06 06:11:56;;;;;;;14.90;4.60;;;;;;;14.01;61.93;101559.13;107066;1254;25328;-51
2024/01/06 06:14:23;;;;;;;13.50;4.50;;;;;;;14.03;61.92;101561.88;107130;1258;25334;-51
2024/01/06 06:16:54;;;;;;;13.40;4.90;;;;;;;14.04;61.88;101559.40;107121;1254;25468;-51
2024/01/06 06:19:21;;;;;;;15.50;4.50;;;;;;;14.06;61.87;101557.94;107140;1254;25350;-51
2024/01/06 06:21:48;;;;;;;15.60;4.50;;;;;;;14.09;61.88;101558.91;107097;1258;25337;-51
2024/01/06 06:24:15;;;;;;;9.80;3.50;;;;;;;14.14;61.87;101553.23;106949;1258;25328;-51
2024/01/06 06:26:42;;;;;;;14.70;3.90;;;;;;;14.18;61.74;101555.58;107096;1260;25373;-51
2024/01/06 06:29:09;;;;;;;11.70;4.10;;;;;;;14.21;61.68;101554.43;106742;1256;25418;-51
2024/01/06 06:31:36;;;;;;;9.10;3.40;;;;;;;14.26;61.65;101552.41;107106;1257;25343;-51
2024/01/06 06:34:04;;;;;;;10.20;3.50;;;;;;;14.30;61.53;101551.11;107024;1256;25343;-51
2024/01/06 06:36:36;;;;;;;10.30;3.80;;;;;;;14.34;61.35;101554.31;107081;1257;25353;-51
2024/01/06 06:39:04;;;;;;;12.20;4.10;;;;;;;14.38;61.27;101546.02;107125;1256;22525;-51
2024/01/06 06:41:31;;;;;;;8.90;3.30;;;;;;;14.41;61.14;101540.20;107064;1254;25446;-51
2024/01/06 06:43:58;;;;;;;10.30;3.20;;;;;;;14.44;60.97;101541.86;106735;1273;25478;-51
2024/01/06 06:46:25;;;;;;;13.20;3.90;;;;;;;14.48;60.89;101543.51;107128;1257;25362;-51
2024/01/06 06:48:52;;;;;;;11.00;3.50;;;;;;;14.51;60.84;101544.65;107163;1259;25455;-51
2024/01/06 06:51:21;;;;;;;9.90;3.50;;;;;;;14.54;60.76;101546.14;106808;1270;25484;-51
2024/01/06 06:53:48;;;;;;;9.60;3.60;;;;;;;14.58;60.67;101546.38;106825;1258;25338;-51
2024/01/06 06:56:17;;;;;;;8.90;3.30;;;;;;;14.61;60.59;101545.26;107052;1256;25334;-52
2024/01/06 06:58:44;;;;;;;9.00;3.10;;;;;;;14.66;60.47;101539.90;107149;1254;22747;-51
2024/01/06 07:01:16;;;;;;;11.80;3.20;;;;;;;14.70;60.37;101541.90;107102;1254;25405;-51
2024/01/06 07:03:44;;;;;;;11.50;3.50;;;;;;;14.75;60.37;101538.27;107096;1264;25389;-51
2024/01/06 07:06:12;;;;;;;14.20;3.40;;;;;;;14.79;60.28;101529.25;106859;1254;25487;-51
2024/01/06 07:08:41;;;;;;;11.10;3.20;;;;;;;14.85;60.21;101529.09;107004;1254;25338;-51
2024/01/06 07:11:09;;;;;;;12.80;3.40;;;;;;;14.91;60.17;101529.13;106985;1257;24188;-51
2024/01/06 07:13:36;;;;;;;11.60;3.70;;;;;;;14.96;60.00;101527.21;106620;1267;25405;-51
2024/01/06 07:16:03;;;;;;;16.80;3.80;;;;;;;15.01;59.74;101526.21;107071;1251;25328;-51
2024/01/06 07:18:44;;;;;;;12.00;3.00;;;;;;;15.05;59.56;101523.98;107057;1258;25484;-51
2024/01/06 07:21:12;;;;;;;10.60;3.40;;;;;;;15.10;59.34;101526.66;107165;1266;24222;-51
2024/01/06 07:23:39;;;;;;;9.50;3.50;;;;;;;15.13;59.29;101519.23;106927;1253;24218;-51
2024/01/06 07:26:07;;;;;;;10.00;3.00;;;;;;;15.17;59.15;101517.38;107115;1256;25387;-51
2024/01/06 07:28:34;;;;;;;10.80;3.20;;;;;;;15.20;58.94;101510.61;107085;1263;25297;-51
2024/01/06 07:31:01;;;;;;;12.30;3.50;;;;;;;15.23;58.73;101504.59;106940;1267;25325;-51
2024/01/06 07:33:29;;;;;;;8.70;2.90;;;;;;;15.24;58.54;101505.09;107097;1257;25458;-51
2024/01/06 07:35:56;;;;;;;13.10;3.80;;;;;;;15.26;58.37;101501.73;107030;1257;25523;-51
2024/01/06 07:38:23;;;;;;;7.90;3.10;;;;;;;15.27;58.13;101499.73;107153;1266;25484;-51
2024/01/06 07:40:50;;;;;;;9.00;3.10;;;;;;;15.28;58.01;101495.90;107044;1267;25529;-51
2024/01/06 07:43:17;;;;;;;7.10;3.20;;;;;;;15.29;57.94;101496.39;107096;1254;25375;-51
2024/01/06 07:45:44;;;;;;;8.00;3.20;;;;;;;15.30;57.85;101495.66;107141;1253;25478;-52
2024/01/06 07:48:11;;;;;;;11.10;3.40;;;;;;;15.31;57.78;101494.95;107003;1256;25337;-51
2024/01/06 07:50:39;;;;;;;17.30;4.00;;;;;;;15.32;57.84;101492.27;106826;1270;25477;-51
2024/01/06 07:53:06;;;;;;;8.40;3.00;;;;;;;15.33;57.75;101491.71;107174;1270;25353;-51
2024/01/06 07:55:33;;;;;;;8.40;3.30;;;;;;;15.34;57.68;101488.88;107058;1256;24037;-51
2024/01/06 07:57:59;;;;;;;13.60;3.60;;;;;;;15.35;57.49;101488.00;107179;1256;25366;-51
2024/01/06 08:00:27;;;;;;;8.10;3.40;;;;;;;15.34;57.53;101479.27;106835;1260;25357;-51
2024/01/06 08:02:54;;;;;;;12.80;3.80;;;;;;;15.36;57.40;101479.38;107020;1266;25485;-51
2024/01/06 08:05:21;;;;;;;12.70;3.70;;;;;;;15.36;57.22;101484.10;107182;1250;25446;-51
2024/01/06 08:07:49;;;;;;;9.60;3.90;;;;;;;15.36;57.19;101475.71;107098;1256;25376;-53
2024/01/06 08:10:16;;;;;;;9.00;3.00;;;;;;;15.36;57.22;101476.93;107062;1254;25337;-51
2024/01/06 08:12:43;;;;;;;11.50;3.50;;;;;;;15.37;57.22;101475.34;107066;1256;25404;-51
2024/01/06 08:15:10;;;;;;;14.10;4.00;;;;;;;15.36;57.15;101473.96;107043;1257;25337;-51
2024/01/06 08:17:40;;;;;;;9.50;3.50;;;;;;;15.36;57.15;101468.71;106703;1263;25510;-51
2024/01/06 08:20:08;;;;;;;12.80;3.70;;;;;;;15.36;57.14;101467.34;106702;1269;25478;-51
2024/01/06 08:22:35;;;;;;;7.80;3.10;;;;;;;15.36;57.16;101469.09;106878;1266;22535;-51
2024/01/06 08:25:02;;;;;;;9.50;2.90;;;;;;;15.36;57.15;101473.61;107091;1263;25357;-51
2024/01/06 08:27:30;;;;;;;11.30;3.80;;;;;;;15.36;57.15;101471.34;106946;1254;25549;-51
2024/01/06 08:29:57;;;;;;;9.70;3.40;;;;;;;15.36;57.11;101466.45;106919;1253;24243;-51
2024/01/06 08:32:24;;;;;;;13.50;3.30;;;;;;;15.34;57.24;101464.23;106886;1254;25455;-51
2024/01/06 08:34:52;;;;;;;9.30;3.40;;;;;;;15.38;57.09;101463.07;105084;1256;2003371;-51
2024/01/06 08:37:19;;;;;;;10.70;4.20;;;;;;;15.39;57.06;101462.15;107069;1256;25324;-51
2024/01/06 08:39:46;;;;;;;13.30;3.30;;;;;;;15.39;57.05;101458.83;107011;1256;25325;-52
2024/01/06 08:42:13;;;;;;;13.70;4.50;;;;;;;15.40;56.91;101457.06;107061;1266;25522;-51
2024/01/06 08:44:40;;;;;;;10.70;3.40;;;;;;;15.40;56.85;101457.77;107061;1264;25337;-52
2024/01/06 08:47:07;;;;;;;11.50;3.70;;;;;;;15.39;56.83;101459.20;107160;1266;25405;-51
2024/01/06 08:49:34;;;;;;;13.60;3.70;;;;;;;15.39;56.83;101453.42;107059;1255;25328;-51
2024/01/06 08:52:02;;;;;;;11.00;4.00;;;;;;;15.40;56.83;101451.12;107056;1257;25379;-51
2024/01/06 08:54:29;;;;;;;12.40;4.50;;;;;;;15.41;56.83;101448.98;107119;1255;25372;-51
2024/01/06 08:56:56;;;;;;;12.60;3.90;;;;;;;15.42;56.83;101452.45;107103;1267;25346;-51
2024/01/06 08:59:23;;;;;;;14.50;4.40;;;;;;;15.42;56.82;101445.30;107137;1257;25445;-51
2024/01/06 09:01:51;;;;;;;13.80;3.80;;;;;;;15.43;56.85;101446.31;107202;1264;25356;-51
2024/01/06 09:04:19;;;;;;;10.30;4.20;;;;;;;15.43;56.92;101445.44;106603;1259;25446;-51
2024/01/06 09:06:46;;;;;;;12.40;4.70;;;;;;;15.44;56.86;101441.39;107087;1257;25337;-51
2024/01/06 09:09:14;;;;;;;8.90;4.10;;;;;;;15.46;56.80;101436.46;107117;1254;25395;-51
2024/01/06 09:11:43;;;;;;;7.80;3.70;;;;;;;15.47;56.81;101435.55;107217;1254;25324;-51
2024/01/06 09:14:10;;;;;;;8.60;3.80;;;;;;;15.49;56.82;101430.77;107140;1258;23488;-52
2024/01/06 09:16:37;;;;;;;12.30;4.50;;;;;;;15.51;56.84;101428.09;106816;1263;25487;-51
2024/01/06 09:19:04;;;;;;;11.60;4.70;;;;;;;15.52;56.75;101415.27;107148;1254;25375;-51
2024/01/06 09:21:31;;;;;;;11.20;4.60;;;;;;;15.54;56.73;101412.97;107111;1254;25392;-51
2024/01/06 09:24:00;;;;;;;10.20;3.60;;;;;;;15.55;56.60;101407.13;107122;1257;25419;-51
2024/01/06 09:26:27;;;;;;;13.20;5.50;;;;;;;15.56;56.59;101406.58;106878;1257;25335;-50
2024/01/06 09:28:54;;;;;;;10.70;4.30;;;;;;;15.58;56.52;101402.33;107382;1257;23184;-51
2024/01/06 09:31:21;;;;;;;11.60;4.60;;;;;;;15.58;56.31;101392.52;107229;1254;25480;-52
2024/01/06 09:33:49;;;;;;;11.80;4.50;;;;;;;15.56;56.34;101382.29;107212;1256;25334;-52
2024/01/06 09:36:16;;;;;;;11.30;4.20;;;;;;;15.53;56.36;101373.98;106840;1257;25452;-53
2024/01/06 09:38:43;;;;;;;10.00;4.00;;;;;;;15.50;56.34;101373.55;107109;1257;25363;-52
2024/01/06 09:41:11;;;;;;;10.80;4.60;;;;;;;15.49;56.38;101370.63;107380;1257;25328;-52
2024/01/06 09:43:38;;;;;;;8.80;4.70;;;;;;;15.47;56.43;101369.09;106927;1255;24276;-52
2024/01/06 09:46:30;;;;;;;11.50;4.40;;;;;;;15.46;56.45;101361.80;106812;1265;25372;-53
2024/01/06 09:48:58;;;;;;;11.60;4.10;;;;;;;15.45;56.40;101360.07;107189;1270;22527;-53
2024/01/06 09:51:28;;;;;;;10.00;4.50;;;;;;;15.45;56.43;101353.98;107134;1253;22521;-52
2024/01/06 09:53:59;;;;;;;20.00;4.90;;;;;;;15.45;56.46;101350.47;107473;1255;22523;-52
2024/01/06 09:56:28;;;;;;;11.60;4.10;;;;;;;15.46;56.37;101349.38;107266;1257;25369;-52
2024/01/06 09:58:55;;;;;;;10.70;4.30;;;;;;;15.47;56.30;101346.54;107333;1256;25337;-53
2024/01/06 10:01:22;;;;;;;10.60;3.70;;;;;;;15.48;56.18;101337.77;107513;1254;22587;-52
2024/01/06 10:03:49;;;;;;;9.80;4.30;;;;;;;15.48;56.19;101337.06;107104;1257;25328;-52
2024/01/06 10:06:17;;;;;;;13.00;5.20;;;;;;;15.49;56.06;101333.54;107269;1253;25487;-52
2024/01/06 10:08:48;;;;;;;13.30;4.60;;;;;;;15.49;56.04;101326.91;107486;1253;23099;-52
2024/01/06 10:11:15;;;;;;;12.90;4.20;;;;;;;15.49;56.02;101326.02;107256;1270;22576;-52
2024/01/06 10:13:42;;;;;;;12.70;4.40;;;;;;;15.51;55.99;101323.36;106910;1253;25337;-52
2024/01/06 10:16:09;;;;;;;15.10;5.50;;;;;;;15.51;56.05;101319.48;106668;1269;22544;-54
2024/01/06 10:18:37;;;;;;;11.60;4.50;;;;;;;15.53;56.02;101312.61;106829;1260;23890;-52
2024/01/06 10:21:08;;;;;;;8.90;3.90;;;;;;;15.54;56.11;101307.84;107060;1270;25218;-52
2024/01/06 10:23:36;;;;;;;9.20;3.80;;;;;;;15.56;56.00;101298.84;106676;1258;25419;-53
2024/01/06 10:26:04;;;;;;;11.00;4.50;;;;;;;15.56;55.96;101287.50;106919;1267;22574;-52
2024/01/06 10:28:32;;;;;;;12.60;4.10;;;;;;;15.60;55.91;101282.98;107384;1259;22633;-53
2024/01/06 10:31:01;;;;;;;12.50;4.40;;;;;;;15.63;55.76;101275.35;107456;1266;25452;-53
2024/01/06 10:33:28;;;;;;;12.40;3.90;;;;;;;15.64;55.74;101271.64;107494;1253;24362;-52
2024/01/06 10:35:56;;;;;;;14.60;5.00;;;;;;;15.66;55.68;101264.57;106836;1256;25465;-52
2024/01/06 10:38:23;;;;;;;11.60;3.70;;;;;;;15.67;55.66;101256.69;107038;1260;25449;-53
2024/01/06 10:40:58;;;;;;;12.60;4.30;;;;;;;15.68;55.52;101251.23;106950;1251;25580;-52
2024/01/06 10:43:34;;;;;;;10.30;4.00;;;;;;;15.68;55.54;101243.20;106905;1256;22527;-52
2024/01/06 10:46:04;;;;;;;9.90;3.50;;;;;;;15.67;55.43;101245.48;106998;1254;25396;-52
2024/01/06 10:48:33;;;;;;;10.30;3.70;;;;;;;15.66;55.46;101239.55;106746;1258;25468;-53
2024/01/06 10:51:00;;;;;;;14.60;4.50;;;;;;;15.66;55.47;101239.75;107181;1253;22610;-53
2024/01/06 10:53:27;;;;;;;10.40;3.30;;;;;;;15.65;55.46;101234.19;106839;1253;25334;-53
2024/01/06 10:55:54;;;;;;;10.00;4.20;;;;;;;15.65;55.43;101231.91;107092;1251;23396;-53
2024/01/06 10:58:23;;;;;;;14.40;3.90;;;;;;;15.65;55.42;101230.00;106972;1253;22546;-53
2024/01/06 11:00:50;;;;;;;12.20;4.60;;;;;;;15.64;55.38;101219.86;107352;1254;22645;-52
2024/01/06 11:03:17;;;;;;;13.10;4.80;;;;;;;15.64;55.35;101215.68;106991;1260;23285;-53
2024/01/06 11:05:45;;;;;;;12.20;4.10;;;;;;;15.63;55.36;101209.78;106726;1254;22523;-51
2024/01/06 11:08:12;;;;;;;7.90;3.80;;;;;;;15.63;55.40;101207.68;107130;1254;25416;-52
2024/01/06 11:10:40;;;;;;;10.40;4.80;;;;;;;15.63;55.43;101206.80;107370;1257;25329;-52
2024/01/06 11:13:21;;;;;;;6.60;3.30;;;;;;;15.63;55.37;101201.55;107004;1266;25413;-52